Seabrook, NH (03874)

11:20 PM EDT on August 04, 2015 (GMT -0400)
W1MSN Seabrook North | | Change Station
CLOSE
Current Station
Personal Weather Station
Location: Seabrook, NH
Elevation: 72 ft
Nearby Weather Stations

Elev 72 ft 42.90 °N, 70.87 °W | Updated 9 seconds ago

Mostly Cloudy
Mostly Cloudy
68.5 °F
Feels Like 68.5 °F
N
2.2
Wind Variable Wind from West
Gusts 3.8 mph

Today
High -- | Low -- °F
--% Chance of Precip.
Yesterday
High -- | Low -- °F
Precip. -- in
5:37 AM 8:00 PM
Waning Gibbous, 72% visible
Pressure 29.87 in
Visibility 10.0 miles
Clouds Scattered Clouds 12000 ft
Dew Point 68 °F
Humidity 98%
Rainfall 0.27 in
Snow Depth Not available.
UV 0 out of 12
Pollen 5.70 out of 12
Air Quality Not available.
Flu Activity Not available.
METAR KPSM 050258Z 18005KT 10SM SCT120 20/17 A2986 RMK AO2A SLP113 T01980173 52012 $

More Conditions Fewer Conditions

Pressure 29.87 in
Visibility 10.0 miles
Clouds Scattered Clouds 12000 ft
Dew Point 68 °F
Humidity 98%
Rainfall 0.27 in
Snow Depth Not available.
UV 0 out of 12
Pollen 5.70 out of 12
Air Quality Not available.
Flu Activity Not available.
METAR KPSM 050258Z 18005KT 10SM SCT120 20/17 A2986 RMK AO2A SLP113 T01980173 52012 $

More Conditions Fewer Conditions

10-Day Weather Forecast

×

Almanac

Astronomy

Aug. 04, 2015 Rise Set
Actual Time
Civil Twilight
Nautical Twilight
Astronomical Twilight
Moon
Length of Visible Light
Length of Day
Tomorrow will be .
, % of the Moon is Illuminated

Today's Extremes

State Highs State Lows

Community

WunderPhotos

Upload Photos

1,844,088 photos uploaded!

WunderBlogs® & News

Nearby

Air Quality

  Air Quality AQ Index Pollutant
Not available.

Snow Depth

Station Depth Elevation

Earthquake Activity

City Distance Mag. Time & Date
Minimum magnitude displayed is 2.5.

Coastal Water Temperatures

Place Temperature

Stations

Nearby Weather Stations

Station Location Temp. Windchill Dew Point Humidity Wind Precip. Elev Updated Type